createdAt,value
2022-11-22T00:01:01.381Z,15.48
2022-11-22T00:03:28.411Z,12.65
2022-11-22T00:06:02.680Z,12.02
2022-11-22T00:08:29.633Z,12.90
2022-11-22T00:10:56.430Z,10.48
2022-11-22T00:13:23.264Z,13.60
2022-11-22T00:16:05.671Z,13.15
2022-11-22T00:18:47.277Z,11.60
2022-11-22T00:21:14.219Z,7.68
2022-11-22T00:23:41.309Z,10.57
2022-11-22T00:26:13.533Z,10.27
2022-11-22T00:28:43.500Z,12.10
2022-11-22T00:31:10.320Z,11.15
2022-11-22T00:33:39.946Z,11.60
2022-11-22T00:36:07.125Z,8.80
2022-11-22T00:38:47.334Z,9.77
2022-11-22T00:41:14.168Z,9.95
2022-11-22T00:43:43.130Z,9.13
2022-11-22T00:46:13.019Z,12.38
2022-11-22T00:48:40.737Z,13.70
2022-11-22T00:51:07.732Z,13.02
2022-11-22T00:53:37.065Z,16.08
2022-11-22T00:56:04.289Z,15.23
2022-11-22T00:58:31.219Z,22.10
2022-11-22T01:00:58.178Z,18.08
2022-11-22T01:03:28.683Z,20.00
2022-11-22T01:05:55.860Z,17.75
2022-11-22T01:08:24.606Z,19.05
2022-11-22T01:11:02.630Z,14.98
2022-11-22T01:13:34.423Z,13.05
2022-11-22T01:16:11.474Z,12.73
2022-11-22T01:18:40.915Z,10.60
2022-11-22T01:21:10.643Z,15.63
2022-11-22T01:23:38.301Z,12.43
2022-11-22T01:26:09.066Z,15.25
2022-11-22T01:28:37.247Z,14.45
2022-11-22T01:31:05.121Z,13.70
2022-11-22T01:33:32.066Z,19.45
2022-11-22T01:36:02.586Z,22.75
2022-11-22T01:38:29.694Z,17.27
2022-11-22T01:40:56.856Z,17.95
2022-11-22T01:43:25.988Z,15.63
2022-11-22T01:45:57.093Z,14.57
2022-11-22T01:48:42.799Z,12.43
2022-11-22T01:51:26.143Z,17.52
2022-11-22T01:53:57.102Z,13.25
2022-11-22T01:56:27.522Z,11.23
2022-11-22T01:59:03.007Z,12.68
2022-11-22T02:01:34.799Z,11.32
2022-11-22T02:04:03.606Z,11.90
2022-11-22T02:06:49.032Z,9.40
2022-11-22T02:09:17.903Z,11.00
2022-11-22T02:11:59.476Z,10.73
2022-11-22T02:14:27.824Z,10.55
2022-11-22T02:16:55.029Z,14.02
2022-11-22T02:19:37.144Z,14.18
2022-11-22T02:22:30.961Z,16.00
2022-11-22T02:25:19.060Z,21.33
2022-11-22T02:27:46.530Z,22.80
2022-11-22T02:30:14.087Z,20.42
2022-11-22T02:32:41.095Z,29.88
2022-11-22T02:35:18.845Z,29.52
2022-11-22T02:37:47.610Z,23.25
2022-11-22T02:40:16.742Z,33.22
2022-11-22T02:42:50.845Z,25.30
2022-11-22T02:45:17.906Z,33.13
2022-11-22T02:47:44.995Z,31.00
2022-11-22T02:50:11.973Z,29.33
2022-11-22T02:52:39.057Z,32.65
2022-11-22T02:55:06.032Z,32.60
2022-11-22T02:57:33.038Z,31.98
2022-11-22T02:59:59.953Z,38.17
2022-11-22T03:02:26.822Z,33.83
2022-11-22T03:04:53.781Z,31.98
2022-11-22T03:07:20.846Z,35.00
2022-11-22T03:09:48.272Z,37.17
2022-11-22T03:12:15.935Z,33.53
2022-11-22T03:14:43.184Z,30.40
2022-11-22T03:17:09.968Z,35.70
2022-11-22T03:19:36.628Z,33.83
2022-11-22T03:22:03.609Z,36.80
2022-11-22T03:24:30.548Z,32.72
2022-11-22T03:26:57.363Z,29.08
2022-11-22T03:29:24.186Z,33.25
2022-11-22T03:31:51.088Z,33.70
2022-11-22T03:34:18.180Z,38.60
2022-11-22T03:36:45.074Z,36.67
2022-11-22T03:39:12.035Z,31.83
2022-11-22T03:41:38.945Z,31.25
2022-11-22T03:44:06.279Z,29.10
2022-11-22T03:46:33.401Z,34.38
2022-11-22T03:49:00.226Z,31.98
2022-11-22T03:51:27.728Z,41.00
2022-11-22T03:53:54.656Z,35.08
2022-11-22T03:56:21.705Z,29.25
2022-11-22T03:58:48.658Z,29.90
2022-11-22T04:01:16.924Z,36.10
2022-11-22T04:03:44.183Z,27.38
2022-11-22T04:06:11.030Z,28.90
2022-11-22T04:08:38.025Z,29.60
2022-11-22T04:11:09.748Z,30.50
2022-11-22T04:13:55.249Z,36.30
2022-11-22T04:16:22.237Z,27.77
2022-11-22T04:18:49.261Z,28.35
2022-11-22T04:21:34.094Z,27.27
2022-11-22T04:24:22.085Z,23.95
2022-11-22T04:26:52.621Z,25.83
2022-11-22T04:29:23.184Z,22.83
2022-11-22T04:32:09.752Z,25.80
2022-11-22T04:34:39.506Z,21.83
2022-11-22T04:37:09.158Z,25.42
2022-11-22T04:39:36.440Z,23.45
2022-11-22T04:42:25.350Z,18.60
2022-11-22T04:44:57.179Z,21.38
2022-11-22T04:47:46.173Z,20.90
2022-11-22T04:50:35.370Z,29.70
2022-11-22T04:53:02.097Z,19.98
2022-11-22T04:55:29.002Z,17.85
2022-11-22T04:57:59.526Z,19.65
2022-11-22T05:00:27.854Z,19.85
2022-11-22T05:02:54.762Z,20.38
2022-11-22T05:05:21.757Z,18.50
2022-11-22T05:07:48.721Z,18.75
2022-11-22T05:10:17.314Z,17.35
2022-11-22T05:12:45.826Z,21.80
2022-11-22T05:15:12.883Z,17.00
2022-11-22T05:17:39.652Z,20.60
2022-11-22T05:20:08.197Z,18.42
2022-11-22T05:22:53.645Z,18.70
2022-11-22T05:27:53.677Z,19.33
2022-11-22T05:30:20.486Z,19.67
2022-11-22T05:32:47.355Z,18.17
2022-11-22T05:35:14.430Z,18.15
2022-11-22T05:37:41.147Z,22.50
2022-11-22T05:40:08.567Z,19.10
2022-11-22T05:42:36.025Z,20.50
2022-11-22T05:45:03.025Z,17.10
2022-11-22T05:47:35.298Z,18.10
2022-11-22T05:50:03.145Z,21.48
2022-11-22T05:52:30.382Z,18.73
2022-11-22T05:54:57.379Z,18.48
2022-11-22T05:57:24.222Z,16.73
2022-11-22T05:59:50.977Z,17.80
2022-11-22T06:02:18.120Z,21.13
2022-11-22T06:04:45.038Z,18.05
2022-11-22T06:07:11.968Z,22.75
2022-11-22T06:09:38.974Z,20.02
2022-11-22T06:12:06.124Z,21.67
2022-11-22T06:14:33.102Z,20.52
2022-11-22T06:17:00.066Z,16.70
2022-11-22T06:19:26.830Z,18.83
2022-11-22T06:21:53.885Z,19.40
2022-11-22T06:24:20.781Z,18.95
2022-11-22T06:26:47.564Z,18.17
2022-11-22T06:29:14.539Z,14.68
2022-11-22T06:31:44.169Z,17.58
2022-11-22T06:34:16.424Z,18.80
2022-11-22T06:36:43.343Z,19.90
2022-11-22T06:39:10.394Z,20.80
2022-11-22T06:41:38.089Z,17.35
2022-11-22T06:44:07.407Z,22.10
2022-11-22T06:46:35.222Z,23.38
2022-11-22T06:49:02.380Z,27.30
2022-11-22T06:51:31.301Z,26.02
2022-11-22T06:53:59.072Z,23.80
2022-11-22T06:56:31.437Z,24.75
2022-11-22T06:59:01.467Z,22.08
2022-11-22T07:01:29.684Z,21.85
2022-11-22T07:03:58.796Z,25.88
2022-11-22T07:06:34.145Z,26.20
2022-11-22T07:09:04.470Z,21.58
2022-11-22T07:11:32.888Z,25.48
2022-11-22T07:14:07.102Z,28.83
2022-11-22T07:16:36.228Z,27.05
2022-11-22T07:19:03.694Z,25.35
2022-11-22T07:21:30.984Z,27.80
2022-11-22T07:23:57.800Z,23.70
2022-11-22T07:26:30.942Z,33.08
2022-11-22T07:28:57.910Z,27.13
2022-11-22T07:31:24.829Z,21.98
2022-11-22T07:33:51.689Z,30.35
2022-11-22T07:36:22.399Z,27.70
2022-11-22T07:38:49.873Z,28.95
2022-11-22T07:41:18.512Z,27.83
2022-11-22T07:43:47.648Z,31.08
2022-11-22T07:46:32.297Z,31.80
2022-11-22T07:49:00.691Z,33.15
2022-11-22T07:51:27.638Z,31.83
2022-11-22T07:53:56.356Z,36.83
2022-11-22T07:56:23.499Z,37.28
2022-11-22T07:58:50.723Z,34.78
2022-11-22T08:01:18.874Z,40.33
2022-11-22T08:03:46.555Z,37.80
2022-11-22T08:06:14.598Z,39.95
2022-11-22T08:08:41.947Z,36.38
2022-11-22T08:11:10.338Z,37.38
2022-11-22T08:13:37.419Z,35.50
2022-11-22T08:16:07.376Z,37.83
2022-11-22T08:18:35.664Z,45.47
2022-11-22T08:21:14.466Z,43.25
2022-11-22T08:23:42.943Z,49.55
2022-11-22T08:26:12.974Z,39.17
2022-11-22T08:28:40.583Z,35.08
2022-11-22T08:31:10.502Z,39.42
2022-11-22T08:33:37.285Z,35.20
2022-11-22T08:36:04.599Z,42.90
2022-11-22T08:38:31.943Z,41.97
2022-11-22T08:40:58.762Z,35.55
2022-11-22T08:43:25.890Z,39.55
2022-11-22T08:45:57.950Z,35.15
2022-11-22T08:48:29.455Z,32.10
2022-11-22T08:50:59.279Z,33.45
2022-11-22T08:53:27.552Z,30.58
2022-11-22T08:55:55.121Z,30.65
2022-11-22T08:58:22.958Z,30.52
2022-11-22T09:00:49.626Z,34.50
2022-11-22T09:03:16.669Z,30.27
2022-11-22T09:08:35.928Z,34.67
2022-11-22T09:11:08.097Z,21.42
2022-11-22T09:13:35.512Z,29.23
2022-11-22T09:16:07.993Z,26.88
2022-11-22T09:18:35.055Z,21.45
2022-11-22T09:21:10.168Z,23.17
2022-11-22T09:23:37.739Z,26.30
2022-11-22T09:26:07.986Z,22.23
2022-11-22T09:28:35.517Z,23.83
2022-11-22T09:31:11.357Z,24.48
2022-11-22T09:33:40.369Z,22.98
2022-11-22T09:36:09.916Z,21.95
2022-11-22T09:38:37.509Z,22.95
2022-11-22T09:41:16.509Z,19.80
2022-11-22T09:43:52.062Z,23.52
2022-11-22T09:46:42.580Z,19.85
2022-11-22T09:49:38.557Z,19.38
2022-11-22T09:52:19.535Z,24.08
2022-11-22T09:54:56.787Z,21.55
2022-11-22T09:57:33.364Z,21.30
2022-11-22T10:00:30.179Z,25.30
2022-11-22T10:03:09.014Z,26.17
2022-11-22T10:05:56.415Z,25.63
2022-11-22T10:08:47.840Z,21.70
2022-11-22T10:11:41.741Z,26.58
2022-11-22T10:14:41.134Z,27.98
2022-11-22T10:17:37.118Z,30.50
2022-11-22T10:20:15.194Z,27.15
2022-11-22T10:22:42.213Z,32.45
2022-11-22T10:25:27.776Z,33.05
2022-11-22T10:28:01.150Z,30.40
2022-11-22T10:30:35.072Z,37.50
2022-11-22T10:33:17.320Z,28.85
2022-11-22T10:36:18.012Z,28.80
2022-11-22T10:38:53.842Z,31.58
2022-11-22T10:41:27.213Z,40.53
2022-11-22T10:44:14.945Z,42.20
2022-11-22T10:46:59.824Z,33.75
2022-11-22T10:49:40.466Z,30.67
2022-11-22T10:52:26.884Z,32.13
2022-11-22T10:55:12.163Z,31.95
2022-11-22T11:00:21.338Z,32.42
2022-11-22T11:02:51.055Z,28.25
2022-11-22T11:05:23.136Z,32.20
2022-11-22T11:07:56.727Z,32.75
2022-11-22T11:10:37.310Z,31.48
2022-11-22T11:13:14.420Z,33.80
2022-11-22T11:16:02.098Z,32.83
2022-11-22T11:18:41.971Z,37.58
2022-11-22T11:21:13.296Z,32.13
2022-11-22T11:23:40.902Z,31.98
2022-11-22T11:26:28.368Z,32.58
2022-11-22T11:29:17.104Z,31.15
2022-11-22T11:31:51.941Z,29.08
2022-11-22T11:34:23.667Z,30.85
2022-11-22T11:36:51.253Z,28.35
2022-11-22T11:39:32.374Z,29.08
2022-11-22T11:42:00.061Z,35.13
2022-11-22T11:44:32.350Z,28.90
2022-11-22T11:46:59.694Z,28.50
2022-11-22T11:49:29.064Z,31.40
2022-11-22T11:51:57.703Z,27.00
2022-11-22T11:54:45.964Z,32.33
2022-11-22T11:57:26.189Z,33.05
2022-11-22T11:59:54.775Z,28.70
2022-11-22T12:02:36.870Z,27.27
2022-11-22T12:05:26.304Z,29.45
2022-11-22T12:07:53.395Z,26.80
2022-11-22T12:10:47.580Z,30.92
2022-11-22T12:14:04.713Z,32.85
2022-11-22T12:16:35.085Z,31.23
2022-11-22T12:19:10.947Z,23.70
2022-11-22T12:22:05.527Z,29.58
2022-11-22T12:27:25.393Z,31.15
2022-11-22T12:29:58.650Z,28.15
2022-11-22T12:32:57.885Z,28.80
2022-11-22T12:35:27.631Z,31.63
2022-11-22T12:38:14.227Z,29.50
2022-11-22T12:40:50.294Z,31.40
2022-11-22T12:43:20.277Z,28.90
2022-11-22T12:46:00.999Z,32.83
2022-11-22T12:48:32.676Z,23.45
2022-11-22T12:48:42.409Z,31.17
2022-11-22T12:51:46.722Z,24.63
2022-11-22T12:54:21.822Z,34.30
2022-11-22T12:59:24.597Z,29.98
2022-11-22T13:02:12.958Z,31.95
2022-11-22T13:05:02.798Z,24.70
2022-11-22T13:07:36.055Z,27.85
2022-11-22T13:10:15.205Z,21.02
2022-11-22T13:12:44.936Z,22.42
2022-11-22T13:15:19.273Z,25.35
2022-11-22T13:17:46.354Z,16.00
2022-11-22T13:20:20.792Z,24.70
2022-11-22T13:23:12.383Z,20.60
2022-11-22T13:26:11.716Z,21.48
2022-11-22T13:28:44.682Z,21.10
2022-11-22T13:31:11.688Z,18.25
2022-11-22T13:33:57.991Z,23.85
2022-11-22T13:36:37.871Z,18.67
2022-11-22T13:39:17.464Z,18.40
2022-11-22T13:41:59.110Z,20.17
2022-11-22T13:44:39.552Z,17.88
2022-11-22T13:47:12.427Z,16.73
2022-11-22T13:49:48.855Z,21.30
2022-11-22T13:52:16.248Z,23.05
2022-11-22T13:55:22.961Z,21.05
2022-11-22T13:57:55.101Z,26.40
2022-11-22T14:00:22.002Z,20.63
2022-11-22T14:02:53.674Z,22.63
2022-11-22T14:05:23.463Z,23.20
2022-11-22T14:07:52.455Z,26.38
2022-11-22T14:10:47.611Z,29.45
2022-11-22T14:13:23.562Z,27.00
2022-11-22T14:16:15.066Z,29.80
2022-11-22T14:18:47.558Z,28.30
2022-11-22T14:21:39.326Z,26.83
2022-11-22T14:24:23.540Z,26.75
2022-11-22T14:27:02.041Z,30.55
2022-11-22T14:29:54.844Z,30.92
2022-11-22T14:32:24.071Z,24.75
2022-11-22T14:35:06.089Z,25.58
2022-11-22T14:37:32.998Z,26.13
2022-11-22T14:40:08.953Z,25.20
2022-11-22T14:42:35.834Z,22.33
2022-11-22T14:45:22.747Z,23.25
2022-11-22T14:47:57.880Z,23.60
2022-11-22T14:50:26.445Z,28.38
2022-11-22T14:52:57.693Z,22.42
2022-11-22T14:55:30.904Z,24.48
2022-11-22T14:58:16.189Z,26.10
2022-11-22T15:00:46.699Z,21.75
2022-11-22T15:03:28.826Z,20.60
2022-11-22T15:09:11.524Z,21.33
2022-11-22T15:09:40.658Z,21.48
2022-11-22T15:12:21.116Z,22.08
2022-11-22T15:57:21.098Z,23.90
2022-11-22T15:59:54.313Z,23.50
2022-11-22T16:02:30.523Z,25.73
2022-11-22T16:06:08.379Z,25.50
2022-11-22T16:07:53.073Z,27.30
2022-11-22T16:10:28.984Z,23.33
2022-11-22T16:12:55.915Z,26.38
2022-11-22T16:15:30.786Z,30.67
2022-11-22T16:20:40.008Z,24.27
2022-11-22T16:23:09.765Z,26.60
2022-11-22T16:25:38.685Z,28.02
2022-11-22T16:28:24.181Z,22.67
2022-11-22T16:30:53.355Z,22.95
2022-11-22T16:33:20.328Z,27.00
2022-11-22T16:35:47.153Z,26.10
2022-11-22T16:38:14.041Z,25.55
2022-11-22T16:40:43.465Z,26.05
2022-11-22T16:43:19.542Z,24.15
2022-11-22T16:45:46.485Z,28.35
2022-11-22T16:48:35.365Z,24.75
2022-11-22T16:51:15.927Z,29.60
2022-11-22T16:53:48.230Z,26.17
2022-11-22T16:56:26.293Z,31.05
2022-11-22T16:58:58.341Z,25.02
2022-11-22T17:01:27.631Z,27.00
2022-11-22T17:03:56.913Z,26.77
2022-11-22T17:06:26.537Z,30.65
2022-11-22T17:08:55.959Z,25.85
2022-11-22T17:11:25.118Z,28.42
2022-11-22T17:13:52.575Z,27.77
2022-11-22T17:16:19.805Z,20.60
2022-11-22T17:18:47.977Z,23.63
2022-11-22T17:21:38.270Z,19.65
2022-11-22T17:24:16.571Z,18.92
2022-11-22T17:26:43.466Z,17.80
2022-11-22T17:29:18.424Z,20.38
2022-11-22T17:31:57.151Z,19.95
2022-11-22T17:34:24.648Z,18.67
2022-11-22T17:36:51.685Z,18.00
2022-11-22T17:39:18.753Z,17.73
2022-11-22T17:41:48.719Z,20.42
2022-11-22T17:44:17.739Z,17.90
2022-11-22T17:46:44.661Z,17.75
2022-11-22T17:49:15.662Z,18.95
2022-11-22T17:51:43.908Z,18.40
2022-11-22T17:54:10.990Z,18.83
2022-11-22T17:56:37.757Z,19.35
2022-11-22T17:59:04.994Z,18.83
2022-11-22T18:01:32.374Z,17.52
2022-11-22T18:03:59.482Z,17.02
2022-11-22T18:06:26.575Z,18.15
2022-11-22T18:08:53.603Z,15.10
2022-11-22T18:11:20.645Z,16.58
2022-11-22T18:13:47.853Z,18.27
2022-11-22T18:16:18.660Z,20.67
2022-11-22T18:18:56.838Z,17.48
2022-11-22T18:21:24.714Z,21.65
2022-11-22T18:23:51.637Z,17.58
2022-11-22T18:31:53.798Z,12.70
2022-11-22T18:34:21.890Z,14.60
2022-11-22T18:37:01.425Z,17.27
2022-11-22T18:39:36.000Z,14.07
2022-11-22T18:42:05.011Z,17.08
2022-11-22T18:44:31.885Z,14.77
2022-11-22T18:46:58.914Z,15.15
2022-11-22T18:49:25.982Z,12.18
2022-11-22T18:51:52.928Z,13.93
2022-11-22T18:54:21.757Z,12.63
2022-11-22T18:56:49.247Z,16.02
2022-11-22T18:59:16.133Z,13.65
2022-11-22T19:01:43.313Z,10.23
2022-11-22T19:04:13.892Z,11.82
2022-11-22T19:06:42.063Z,15.90
2022-11-22T19:09:09.522Z,14.35
2022-11-22T19:11:36.382Z,15.48
2022-11-22T19:14:03.359Z,13.35
2022-11-22T19:16:30.726Z,12.25
2022-11-22T19:18:58.564Z,11.68
2022-11-22T19:21:28.120Z,12.20
2022-11-22T19:23:56.703Z,12.40
2022-11-22T19:26:26.229Z,12.60
2022-11-22T19:28:57.914Z,14.63
2022-11-22T19:31:29.603Z,14.68
2022-11-22T19:33:57.366Z,12.32
2022-11-22T19:36:32.778Z,11.73
2022-11-22T19:39:01.631Z,14.52
2022-11-22T19:41:28.665Z,13.23
2022-11-22T19:43:56.414Z,12.48
2022-11-22T19:46:24.850Z,15.43
2022-11-22T19:48:52.762Z,14.70
2022-11-22T19:51:20.176Z,15.88
2022-11-22T19:53:48.147Z,11.77
2022-11-22T19:56:19.397Z,11.02
2022-11-22T19:58:54.370Z,11.07
2022-11-22T20:03:57.988Z,13.68
2022-11-22T20:06:25.694Z,10.57
2022-11-22T20:08:52.588Z,12.65
2022-11-22T20:11:21.269Z,11.25
2022-11-22T20:13:50.597Z,10.13
2022-11-22T20:16:25.764Z,12.88
2022-11-22T20:18:56.992Z,12.75
2022-11-22T20:21:25.256Z,13.40
2022-11-22T20:23:53.202Z,17.92
2022-11-22T20:26:21.802Z,14.88
2022-11-22T20:28:55.234Z,17.70
2022-11-22T20:31:23.018Z,13.02
2022-11-22T20:33:51.385Z,12.32
2022-11-22T20:36:20.881Z,13.25
2022-11-22T20:38:49.218Z,14.30
2022-11-22T20:41:17.859Z,13.07
2022-11-22T20:43:46.348Z,12.63
2022-11-22T20:46:15.390Z,15.57
2022-11-22T20:48:44.069Z,16.85
2022-11-22T20:51:20.770Z,10.30
2022-11-22T20:53:47.863Z,14.52
2022-11-22T20:56:15.306Z,12.45
2022-11-22T20:58:42.500Z,12.20
2022-11-22T21:01:13.638Z,13.55
2022-11-22T21:03:40.740Z,13.20
2022-11-22T21:06:07.995Z,12.82
2022-11-22T21:08:34.705Z,13.63
2022-11-22T21:11:09.887Z,15.73
2022-11-22T21:13:36.883Z,13.40
2022-11-22T21:16:21.494Z,14.23
2022-11-22T21:18:54.856Z,14.93
2022-11-22T21:21:25.556Z,12.77
2022-11-22T21:23:54.602Z,11.60
2022-11-22T21:26:23.085Z,12.70
2022-11-22T21:28:50.224Z,14.73
2022-11-22T21:31:17.889Z,14.15
2022-11-22T21:33:45.902Z,12.38
2022-11-22T21:36:13.269Z,13.23
2022-11-22T21:38:40.184Z,11.13
2022-11-22T21:41:38.906Z,12.90
2022-11-22T21:44:03.477Z,10.25
2022-11-22T21:46:30.417Z,10.95
2022-11-22T21:48:57.393Z,14.68
2022-11-22T21:51:26.580Z,12.27
2022-11-22T21:53:57.966Z,9.88
2022-11-22T21:56:26.002Z,12.18
2022-11-22T21:58:53.034Z,11.20
2022-11-22T22:01:20.134Z,9.15
2022-11-22T22:03:47.037Z,9.80
2022-11-22T22:06:13.803Z,13.60
2022-11-22T22:08:41.117Z,10.32
2022-11-22T22:11:08.705Z,10.32
2022-11-22T22:13:35.553Z,9.07
2022-11-22T22:16:06.938Z,10.75
2022-11-22T22:18:35.783Z,8.52
2022-11-22T22:21:07.969Z,11.23
2022-11-22T22:23:36.707Z,11.57
2022-11-22T22:26:06.286Z,9.68
2022-11-22T22:28:35.507Z,8.15
2022-11-22T22:31:12.578Z,11.25
2022-11-22T22:33:41.417Z,9.00
2022-11-22T22:36:10.118Z,9.98
2022-11-22T22:38:38.568Z,10.55
2022-11-22T22:41:06.971Z,9.45
2022-11-22T22:43:39.325Z,9.80
2022-11-22T22:46:13.466Z,8.48
2022-11-22T22:48:41.391Z,7.25
2022-11-22T22:51:18.125Z,10.23
2022-11-22T22:53:45.925Z,9.60
2022-11-22T22:56:14.278Z,10.27
2022-11-22T22:58:41.418Z,11.38
2022-11-22T23:01:19.983Z,9.27
2022-11-22T23:03:55.627Z,9.30
2022-11-22T23:06:22.756Z,8.30
2022-11-22T23:08:51.438Z,10.25
2022-11-22T23:11:44.546Z,13.75
2022-11-22T23:14:12.891Z,10.68
2022-11-22T23:16:40.082Z,11.88
2022-11-22T23:19:08.166Z,11.65
2022-11-22T23:21:35.468Z,13.88
2022-11-22T23:24:02.876Z,12.77
2022-11-22T23:26:29.877Z,14.77
2022-11-22T23:28:58.639Z,13.23
2022-11-22T23:31:26.053Z,11.15
2022-11-22T23:33:53.874Z,11.18
2022-11-22T23:36:22.466Z,9.82
2022-11-22T23:38:49.506Z,11.43
2022-11-22T23:41:22.508Z,12.23
2022-11-22T23:43:57.269Z,15.45
2022-11-22T23:46:27.672Z,8.93
2022-11-22T23:48:57.333Z,9.77
2022-11-22T23:51:25.310Z,10.18
2022-11-22T23:53:59.675Z,14.23
2022-11-22T23:56:27.957Z,6.28
2022-11-22T23:58:54.841Z,13.55
